LFKB/BIA METAR and TAF weather

Enter ICAO airport designator
Station Type Date Time Source
LFKB METAR 2019/10/15 22:00 UTC NOAA

LFKB 152200Z AUTO 21008KT CAVOK 18/05 Q1013 NOSIG


Station Type Date Time Source
LFKB Decoded METAR 2019/10/15 22:00 UTC NOAA

Bastia, France (LFKB) 42-33N 009-29E 12M
Oct 15, 2019 - 06:00 PM EDT / 2019.10.15 2200 UTC
Wind: from the SSW (210 degrees) at 9 MPH (8 KT):0
Visibility: greater than 7 mile(s):0
Temperature: 64 F (18 C)
Dew Point: 41 F (5 C)
Relative Humidity: 42%
Pressure (altimeter): 29.91 in. Hg (1013 hPa)
ob: LFKB 152200Z AUTO 21008KT CAVOK 18/05 Q1013 NOSIG
cycle: 22

Station Type Date Time Source
LFKB TAF 2019/10/15 21:21 UTC NOAA

TAF TAF LFKB 152000Z 1521/1621 24010KT CAVOK TX23/1612Z TN13/1603Z
BECMG 1607/1609 12008KT

Example: see airport list